createdAt,value
2018-12-02T00:00:20.461Z,1011.74
2018-12-02T00:01:20.489Z,1011.71
2018-12-02T00:02:20.455Z,1011.72
2018-12-02T00:03:20.300Z,1011.69
2018-12-02T00:04:20.311Z,1011.74
2018-12-02T00:05:20.476Z,1011.72
2018-12-02T00:06:20.506Z,1011.71
2018-12-02T00:07:20.280Z,1011.68
2018-12-02T00:08:20.362Z,1011.67
2018-12-02T00:09:20.797Z,1011.71
2018-12-02T00:10:20.329Z,1011.65
2018-12-02T00:11:20.599Z,1011.64
2018-12-02T00:12:20.484Z,1011.69
2018-12-02T00:13:20.326Z,1011.63
2018-12-02T00:14:20.436Z,1011.6
2018-12-02T00:15:20.335Z,1011.61
2018-12-02T00:16:20.368Z,1011.62
2018-12-02T00:17:20.315Z,1011.54
2018-12-02T00:18:20.300Z,1011.49
2018-12-02T00:19:20.541Z,1011.56
2018-12-02T00:20:20.479Z,1011.5
2018-12-02T00:21:20.471Z,1011.49
2018-12-02T00:22:20.453Z,1011.45
2018-12-02T00:23:20.437Z,1011.47
2018-12-02T00:24:20.468Z,1011.41
2018-12-02T00:25:20.331Z,1011.42
2018-12-02T00:26:20.312Z,1011.38
2018-12-02T00:27:20.394Z,1011.38
2018-12-02T00:28:20.560Z,1011.39
2018-12-02T00:29:20.519Z,1011.37
2018-12-02T00:30:20.483Z,1011.39
2018-12-02T00:31:20.231Z,1011.33
2018-12-02T00:32:20.429Z,1011.28
2018-12-02T00:33:20.282Z,1011.29
2018-12-02T00:34:20.330Z,1011.27
2018-12-02T00:35:20.246Z,1011.25
2018-12-02T00:36:21.082Z,1011.19
2018-12-02T00:37:20.259Z,1011.19
2018-12-02T00:38:20.282Z,1011.18
2018-12-02T00:39:20.430Z,1011.14
2018-12-02T00:40:20.519Z,1011.11
2018-12-02T00:41:20.493Z,1011.15
2018-12-02T00:42:20.455Z,1011.16
2018-12-02T00:43:20.352Z,1011.1
2018-12-02T00:44:20.279Z,1011.11
2018-12-02T00:45:20.526Z,1011.1
2018-12-02T00:46:20.392Z,1011.07
2018-12-02T00:47:20.249Z,1011.06
2018-12-02T00:48:20.502Z,1011.07
2018-12-02T00:49:20.467Z,1011.04
2018-12-02T00:50:20.215Z,1011
2018-12-02T00:51:20.445Z,1011.03
2018-12-02T00:52:20.557Z,1011.02
2018-12-02T00:53:20.647Z,1011.02
2018-12-02T00:54:20.467Z,1011
2018-12-02T00:55:20.374Z,1010.94
2018-12-02T00:56:20.297Z,1010.92
2018-12-02T00:57:20.208Z,1010.9
2018-12-02T00:58:20.254Z,1010.93
2018-12-02T00:59:20.528Z,1010.91
2018-12-02T01:00:20.382Z,1010.82
2018-12-02T01:01:20.205Z,1010.83
2018-12-02T01:02:20.345Z,1010.85
2018-12-02T01:03:20.498Z,1010.82
2018-12-02T01:04:20.230Z,1010.86
2018-12-02T01:05:20.234Z,1010.84
2018-12-02T01:06:20.248Z,1010.8
2018-12-02T01:07:20.233Z,1010.8
2018-12-02T01:08:20.234Z,1010.79
2018-12-02T01:09:20.224Z,1010.81
2018-12-02T01:10:20.266Z,1010.77
2018-12-02T01:11:20.592Z,1010.72
2018-12-02T01:12:20.240Z,1010.69
2018-12-02T01:13:20.218Z,1010.68
2018-12-02T01:14:20.292Z,1010.68
2018-12-02T01:15:20.287Z,1010.67
2018-12-02T01:16:20.237Z,1010.64
2018-12-02T01:17:20.471Z,1010.66
2018-12-02T01:18:20.198Z,1010.62
2018-12-02T01:19:20.208Z,1010.58
2018-12-02T01:20:20.219Z,1010.57
2018-12-02T01:21:20.220Z,1010.54
2018-12-02T01:22:20.258Z,1010.49
2018-12-02T01:23:20.218Z,1010.53
2018-12-02T01:24:20.245Z,1010.52
2018-12-02T01:25:20.522Z,1010.53
2018-12-02T01:26:20.166Z,1010.55
2018-12-02T01:27:20.227Z,1010.55
2018-12-02T01:28:20.360Z,1010.51
2018-12-02T01:29:20.259Z,1010.5
2018-12-02T01:30:20.202Z,1010.56
2018-12-02T01:31:20.482Z,1010.55
2018-12-02T01:32:20.533Z,1010.52
2018-12-02T01:33:20.225Z,1010.46
2018-12-02T01:34:20.473Z,1010.45
2018-12-02T01:35:20.288Z,1010.47
2018-12-02T01:36:20.471Z,1010.5
2018-12-02T01:37:20.286Z,1010.42
2018-12-02T01:38:20.373Z,1010.43
2018-12-02T01:39:20.377Z,1010.43
2018-12-02T01:40:20.179Z,1010.44
2018-12-02T01:41:20.329Z,1010.42
2018-12-02T01:42:20.247Z,1010.39
2018-12-02T01:43:20.375Z,1010.45
2018-12-02T01:44:20.438Z,1010.44
2018-12-02T01:45:20.239Z,1010.41
2018-12-02T01:46:20.324Z,1010.36
2018-12-02T01:47:20.329Z,1010.36
2018-12-02T01:48:20.603Z,1010.31
2018-12-02T01:49:20.244Z,1010.34
2018-12-02T01:50:20.345Z,1010.34
2018-12-02T01:51:20.223Z,1010.31
2018-12-02T01:52:20.184Z,1010.34
2018-12-02T01:53:20.602Z,1010.32
2018-12-02T01:54:20.249Z,1010.28
2018-12-02T01:55:20.180Z,1010.33
2018-12-02T01:56:20.345Z,1010.33
2018-12-02T01:57:20.319Z,1010.27
2018-12-02T01:58:20.216Z,1010.25
2018-12-02T01:59:20.155Z,1010.24
2018-12-02T02:00:20.418Z,1010.25
2018-12-02T02:01:20.535Z,1010.2
2018-12-02T02:02:20.416Z,1010.22
2018-12-02T02:03:20.397Z,1010.18
2018-12-02T02:04:20.404Z,1010.19
2018-12-02T02:05:20.257Z,1010.15
2018-12-02T02:06:20.181Z,1010.16
2018-12-02T02:07:20.166Z,1010.14
2018-12-02T02:08:20.331Z,1010.12
2018-12-02T02:09:20.153Z,1010.1
2018-12-02T02:10:20.149Z,1010.06
2018-12-02T02:11:20.189Z,1010.06
2018-12-02T02:12:20.501Z,1010.04
2018-12-02T02:13:20.201Z,1010.03
2018-12-02T02:14:20.124Z,1010.05
2018-12-02T02:15:20.146Z,1010.05
2018-12-02T02:16:20.232Z,1010.04
2018-12-02T02:17:20.314Z,1009.99
2018-12-02T02:18:20.443Z,1009.98
2018-12-02T02:19:20.246Z,1009.9
2018-12-02T02:20:20.148Z,1009.89
2018-12-02T02:21:20.094Z,1009.93
2018-12-02T02:22:20.303Z,1009.95
2018-12-02T02:23:20.276Z,1009.93
2018-12-02T02:24:20.100Z,1009.92
2018-12-02T02:25:20.114Z,1009.91
2018-12-02T02:26:20.124Z,1009.79
2018-12-02T02:27:20.167Z,1009.85
2018-12-02T02:28:20.172Z,1009.77
2018-12-02T02:29:20.085Z,1009.75
2018-12-02T02:30:20.111Z,1009.78
2018-12-02T02:31:20.318Z,1009.7
2018-12-02T02:32:20.186Z,1009.68
2018-12-02T02:33:20.125Z,1009.7
2018-12-02T02:34:20.129Z,1009.64
2018-12-02T02:35:20.097Z,1009.62
2018-12-02T02:36:20.333Z,1009.61
2018-12-02T02:37:20.121Z,1009.54
2018-12-02T02:38:20.246Z,1009.51
2018-12-02T02:39:20.273Z,1009.51
2018-12-02T02:40:20.166Z,1009.5
2018-12-02T02:41:20.215Z,1009.48
2018-12-02T02:42:20.350Z,1009.43
2018-12-02T02:43:20.094Z,1009.43
2018-12-02T02:44:20.086Z,1009.48
2018-12-02T02:45:20.279Z,1009.4
2018-12-02T02:46:20.118Z,1009.34
2018-12-02T02:47:20.108Z,1009.35
2018-12-02T02:48:20.085Z,1009.34
2018-12-02T02:49:20.137Z,1009.38
2018-12-02T02:50:20.107Z,1009.35
2018-12-02T02:51:20.108Z,1009.36
2018-12-02T02:52:20.098Z,1009.35
2018-12-02T02:53:20.074Z,1009.28
2018-12-02T02:54:20.200Z,1009.35
2018-12-02T02:55:20.072Z,1009.31
2018-12-02T02:56:20.100Z,1009.31
2018-12-02T02:57:20.054Z,1009.29
2018-12-02T02:58:20.091Z,1009.25
2018-12-02T02:59:20.088Z,1009.22
2018-12-02T03:00:20.060Z,1009.21
2018-12-02T03:01:20.077Z,1009.18
2018-12-02T03:02:20.157Z,1009.15
2018-12-02T03:03:20.094Z,1009.17
2018-12-02T03:04:20.893Z,1009.16
2018-12-02T03:05:20.350Z,1009.14
2018-12-02T03:06:20.141Z,1009.13
2018-12-02T03:07:20.182Z,1009.09
2018-12-02T03:08:20.036Z,1009.1
2018-12-02T03:09:20.069Z,1009.03
2018-12-02T03:10:20.066Z,1009.02
2018-12-02T03:11:20.048Z,1008.96
2018-12-02T03:12:20.616Z,1009
2018-12-02T03:13:20.077Z,1008.93
2018-12-02T03:14:20.311Z,1008.9
2018-12-02T03:15:20.697Z,1008.89
2018-12-02T03:16:20.562Z,1008.93
2018-12-02T03:17:20.162Z,1008.93
2018-12-02T03:18:20.197Z,1008.89
2018-12-02T03:19:20.111Z,1008.89
2018-12-02T03:20:20.077Z,1008.92
2018-12-02T03:21:20.095Z,1008.86
2018-12-02T03:22:20.191Z,1008.86
2018-12-02T03:23:20.326Z,1008.85
2018-12-02T03:24:20.395Z,1008.8
2018-12-02T03:25:20.120Z,1008.81
2018-12-02T03:26:20.142Z,1008.82
2018-12-02T03:27:20.230Z,1008.8
2018-12-02T03:28:20.167Z,1008.74
2018-12-02T03:29:20.095Z,1008.74
2018-12-02T03:30:20.200Z,1008.75
2018-12-02T03:31:20.180Z,1008.69
2018-12-02T03:32:20.065Z,1008.68
2018-12-02T03:33:20.277Z,1008.62
2018-12-02T03:34:20.507Z,1008.64
2018-12-02T03:35:20.094Z,1008.62
2018-12-02T03:36:20.463Z,1008.68
2018-12-02T03:37:20.016Z,1008.6
2018-12-02T03:38:20.038Z,1008.63
2018-12-02T03:39:20.421Z,1008.58
2018-12-02T03:40:20.060Z,1008.57
2018-12-02T03:41:20.375Z,1008.57
2018-12-02T03:42:20.076Z,1008.56
2018-12-02T03:43:20.056Z,1008.51
2018-12-02T03:44:20.307Z,1008.47
2018-12-02T03:45:20.227Z,1008.49
2018-12-02T03:46:20.077Z,1008.49
2018-12-02T03:47:20.187Z,1008.4
2018-12-02T03:48:20.117Z,1008.36
2018-12-02T03:49:20.851Z,1008.37
2018-12-02T03:50:20.087Z,1008.31
2018-12-02T03:51:20.318Z,1008.23
2018-12-02T03:52:20.398Z,1008.31
2018-12-02T03:53:20.182Z,1008.23
2018-12-02T03:54:20.289Z,1008.23
2018-12-02T03:55:20.463Z,1008.19
2018-12-02T03:56:20.001Z,1008.2
2018-12-02T03:57:20.169Z,1008.15
2018-12-02T03:58:20.213Z,1008.17
2018-12-02T03:59:20.081Z,1008.13
2018-12-02T04:00:20.077Z,1008.09
2018-12-02T04:01:20.256Z,1008.12
2018-12-02T04:02:20.064Z,1008.14
2018-12-02T04:03:20.118Z,1008.13
2018-12-02T04:04:20.127Z,1008.15
2018-12-02T04:05:20.036Z,1008.14
2018-12-02T04:06:20.023Z,1008.14
2018-12-02T04:07:20.825Z,1008.14
2018-12-02T04:08:20.026Z,1008.12
2018-12-02T04:09:20.070Z,1008.14
2018-12-02T04:10:20.036Z,1008.18
2018-12-02T04:11:20.159Z,1008.21
2018-12-02T04:12:20.411Z,1008.18
2018-12-02T04:13:20.030Z,1008.17
2018-12-02T04:14:20.044Z,1008.22
2018-12-02T04:15:20.920Z,1008.21
2018-12-02T04:16:20.243Z,1008.21
2018-12-02T04:17:20.748Z,1008.26
2018-12-02T04:18:20.040Z,1008.23
2018-12-02T04:19:20.049Z,1008.22
2018-12-02T04:20:20.049Z,1008.23
2018-12-02T04:21:20.400Z,1008.22
2018-12-02T04:22:20.082Z,1008.19
2018-12-02T04:23:19.971Z,1008.19
2018-12-02T04:24:20.164Z,1008.22
2018-12-02T04:25:20.027Z,1008.15
2018-12-02T04:26:19.965Z,1008.22
2018-12-02T04:27:19.953Z,1008.2
2018-12-02T04:28:19.962Z,1008.27
2018-12-02T04:29:20.013Z,1008.18
2018-12-02T04:30:19.996Z,1008.3
2018-12-02T04:31:19.967Z,1008.24
2018-12-02T04:32:19.998Z,1008.24
2018-12-02T04:33:20.078Z,1008.2
2018-12-02T04:34:20.160Z,1008.21
2018-12-02T04:35:19.986Z,1008.21
2018-12-02T04:36:20.243Z,1008.24
2018-12-02T04:37:20.202Z,1008.18
2018-12-02T04:38:20.104Z,1008.2
2018-12-02T04:39:19.952Z,1008.21
2018-12-02T04:40:19.959Z,1008.21
2018-12-02T04:41:19.996Z,1008.2
2018-12-02T04:42:20.238Z,1008.21
2018-12-02T04:43:20.013Z,1008.19
2018-12-02T04:44:20.017Z,1008.21
2018-12-02T04:45:20.135Z,1008.23
2018-12-02T04:46:20.237Z,1008.18
2018-12-02T04:47:19.988Z,1008.22
2018-12-02T04:48:19.964Z,1008.23
2018-12-02T04:49:19.939Z,1008.26
2018-12-02T04:50:20.184Z,1008.25
2018-12-02T04:51:20.171Z,1008.21
2018-12-02T04:52:20.235Z,1008.23
2018-12-02T04:53:20.058Z,1008.15
2018-12-02T04:54:20.060Z,1008.16
2018-12-02T04:55:20.272Z,1008.1
2018-12-02T04:56:20.160Z,1008.15
2018-12-02T04:57:19.938Z,1008.09
2018-12-02T04:58:19.970Z,1008.09
2018-12-02T04:59:20.078Z,1008.09
2018-12-02T05:00:20.106Z,1008.08
2018-12-02T05:01:19.914Z,1008
2018-12-02T05:02:20.046Z,1008.03
2018-12-02T05:03:20.023Z,1008.02
2018-12-02T05:04:20.096Z,1007.94
2018-12-02T05:05:19.970Z,1007.92
2018-12-02T05:06:19.951Z,1007.95
2018-12-02T05:07:19.969Z,1007.94
2018-12-02T05:08:20.035Z,1007.89
2018-12-02T05:09:20.358Z,1007.88
2018-12-02T05:10:20.044Z,1007.86
2018-12-02T05:11:20.096Z,1007.81
2018-12-02T05:12:20.106Z,1007.86
2018-12-02T05:13:19.912Z,1007.84
2018-12-02T05:14:19.935Z,1007.81
2018-12-02T05:15:19.923Z,1007.78
2018-12-02T05:16:20.086Z,1007.82
2018-12-02T05:17:20.035Z,1007.79
2018-12-02T05:18:20.098Z,1007.75
2018-12-02T05:19:20.004Z,1007.73
2018-12-02T05:20:20.028Z,1007.81
2018-12-02T05:21:20.099Z,1007.71
2018-12-02T05:22:19.953Z,1007.71
2018-12-02T05:23:19.964Z,1007.74
2018-12-02T05:24:20.022Z,1007.7
2018-12-02T05:25:20.326Z,1007.68
2018-12-02T05:26:19.949Z,1007.62
2018-12-02T05:27:20.095Z,1007.6
2018-12-02T05:28:20.229Z,1007.62
2018-12-02T05:29:19.989Z,1007.57
2018-12-02T05:30:19.994Z,1007.52
2018-12-02T05:31:19.988Z,1007.52
2018-12-02T05:32:20.112Z,1007.49
2018-12-02T05:33:20.758Z,1007.51
2018-12-02T05:34:19.966Z,1007.49
2018-12-02T05:35:19.963Z,1007.47
2018-12-02T05:36:20.037Z,1007.46
2018-12-02T05:37:20.050Z,1007.51
2018-12-02T05:38:20.191Z,1007.47
2018-12-02T05:39:20.276Z,1007.47
2018-12-02T05:40:19.981Z,1007.45
2018-12-02T05:41:19.933Z,1007.4
2018-12-02T05:42:19.839Z,1007.4
2018-12-02T05:43:20.021Z,1007.41
2018-12-02T05:44:19.959Z,1007.39
2018-12-02T05:45:20.102Z,1007.4
2018-12-02T05:46:19.967Z,1007.38
2018-12-02T05:47:20.086Z,1007.39
2018-12-02T05:48:22.483Z,1007.38
2018-12-02T05:49:20.995Z,1007.35
2018-12-02T05:50:19.882Z,1007.32
2018-12-02T05:51:19.856Z,1007.32
2018-12-02T05:52:20.061Z,1007.34
2018-12-02T05:53:20.041Z,1007.33
2018-12-02T05:54:19.832Z,1007.32
2018-12-02T05:55:19.991Z,1007.29
2018-12-02T05:56:19.820Z,1007.33
2018-12-02T05:57:19.860Z,1007.3
2018-12-02T05:58:19.905Z,1007.36
2018-12-02T05:59:19.856Z,1007.29
2018-12-02T06:00:19.932Z,1007.3
2018-12-02T06:01:19.825Z,1007.3
2018-12-02T06:02:19.826Z,1007.28
2018-12-02T06:03:19.834Z,1007.24
2018-12-02T06:04:19.838Z,1007.23
2018-12-02T06:05:19.872Z,1007.23
2018-12-02T06:06:19.959Z,1007.23
2018-12-02T06:07:19.863Z,1007.22
2018-12-02T06:08:19.817Z,1007.15
2018-12-02T06:09:19.836Z,1007.19
2018-12-02T06:10:19.868Z,1007.2
2018-12-02T06:11:19.852Z,1007.17
2018-12-02T06:12:20.103Z,1007.18
2018-12-02T06:13:19.963Z,1007.11
2018-12-02T06:14:19.992Z,1007.1
2018-12-02T06:15:19.954Z,1007.11
2018-12-02T06:16:19.948Z,1007.05
2018-12-02T06:17:19.850Z,1007.04
2018-12-02T06:18:19.888Z,1007.04
2018-12-02T06:19:19.832Z,1007.02
2018-12-02T06:20:20.047Z,1007.01
2018-12-02T06:21:19.844Z,1006.99
2018-12-02T06:22:19.819Z,1006.99
2018-12-02T06:23:20.031Z,1006.98
2018-12-02T06:24:20.005Z,1006.97
2018-12-02T06:25:20.025Z,1006.96
2018-12-02T06:26:19.817Z,1006.94
2018-12-02T06:27:19.829Z,1006.91
2018-12-02T06:28:20.450Z,1006.9
2018-12-02T06:29:20.050Z,1006.92
2018-12-02T06:30:19.862Z,1006.97
2018-12-02T06:31:19.931Z,1006.94
2018-12-02T06:32:19.981Z,1006.91
2018-12-02T06:33:19.985Z,1006.89
2018-12-02T06:34:19.990Z,1006.95
2018-12-02T06:35:20.117Z,1006.9
2018-12-02T06:36:20.061Z,1006.96
2018-12-02T06:37:20.001Z,1006.91
2018-12-02T06:38:19.833Z,1006.88
2018-12-02T06:39:19.815Z,1006.86
2018-12-02T06:40:19.848Z,1006.84
2018-12-02T06:41:19.834Z,1006.84
2018-12-02T06:42:19.830Z,1006.84
2018-12-02T06:43:19.855Z,1006.83
2018-12-02T06:44:19.828Z,1006.89
2018-12-02T06:45:20.041Z,1006.88
2018-12-02T06:46:19.962Z,1006.9
2018-12-02T06:47:20.324Z,1006.94
2018-12-02T06:48:19.858Z,1006.94
2018-12-02T06:49:19.855Z,1006.96
2018-12-02T06:50:20.095Z,1007
2018-12-02T06:51:20.025Z,1007.05
2018-12-02T06:52:20.069Z,1006.95
2018-12-02T06:53:19.795Z,1006.96
2018-12-02T06:54:19.799Z,1006.95
2018-12-02T06:55:19.851Z,1006.95
2018-12-02T06:56:19.942Z,1006.95
2018-12-02T06:57:20.055Z,1006.94
2018-12-02T06:58:20.295Z,1006.94
2018-12-02T06:59:20.093Z,1006.94
2018-12-02T07:00:20.001Z,1006.98
2018-12-02T07:01:19.788Z,1006.94
2018-12-02T07:02:19.764Z,1006.97
2018-12-02T07:03:19.946Z,1006.97
2018-12-02T07:04:19.984Z,1006.93
2018-12-02T07:05:20.037Z,1006.97
2018-12-02T07:06:19.830Z,1006.88
2018-12-02T07:07:19.822Z,1006.9
2018-12-02T07:08:19.826Z,1006.92
2018-12-02T07:09:19.876Z,1006.88
2018-12-02T07:10:19.757Z,1006.92
2018-12-02T07:11:19.956Z,1006.88
2018-12-02T07:12:19.756Z,1006.9
2018-12-02T07:13:19.782Z,1006.87
2018-12-02T07:14:19.913Z,1006.88
2018-12-02T07:15:20.000Z,1006.83
2018-12-02T07:16:19.752Z,1006.84
2018-12-02T07:17:19.998Z,1006.82
2018-12-02T07:18:19.990Z,1006.77
2018-12-02T07:19:19.774Z,1006.77
2018-12-02T07:20:19.726Z,1006.78
2018-12-02T07:21:19.765Z,1006.78
2018-12-02T07:22:19.764Z,1006.78
2018-12-02T07:23:19.963Z,1006.8
2018-12-02T07:24:20.028Z,1006.81
2018-12-02T07:25:19.767Z,1006.83
2018-12-02T07:26:19.904Z,1006.77
2018-12-02T07:27:20.048Z,1006.77
2018-12-02T07:28:19.808Z,1006.8
2018-12-02T07:29:19.979Z,1006.75
2018-12-02T07:30:25.191Z,1006.74
2018-12-02T07:31:19.891Z,1006.69
2018-12-02T07:32:19.999Z,1006.68
2018-12-02T07:33:19.923Z,1006.71
2018-12-02T07:34:19.779Z,1006.69
2018-12-02T07:35:19.754Z,1006.66
2018-12-02T07:36:19.718Z,1006.63
2018-12-02T07:37:19.742Z,1006.63
2018-12-02T07:38:19.734Z,1006.59
2018-12-02T07:39:20.049Z,1006.57
2018-12-02T07:40:19.724Z,1006.56
2018-12-02T07:41:19.936Z,1006.52
2018-12-02T07:42:19.778Z,1006.53
2018-12-02T07:43:19.745Z,1006.57
2018-12-02T07:44:19.755Z,1006.48
2018-12-02T07:45:19.738Z,1006.49
2018-12-02T07:46:19.707Z,1006.53
2018-12-02T07:47:19.996Z,1006.53
2018-12-02T07:48:19.690Z,1006.56
2018-12-02T07:49:19.994Z,1006.56
2018-12-02T07:50:19.722Z,1006.54
2018-12-02T07:51:19.728Z,1006.5
2018-12-02T07:52:19.792Z,1006.49
2018-12-02T07:53:19.741Z,1006.48
2018-12-02T07:54:20.000Z,1006.44
2018-12-02T07:55:19.691Z,1006.5
2018-12-02T07:56:19.757Z,1006.49
2018-12-02T07:57:19.744Z,1006.45
2018-12-02T07:58:19.892Z,1006.47
2018-12-02T07:59:19.773Z,1006.43
2018-12-02T08:00:19.706Z,1006.45
2018-12-02T08:01:20.061Z,1006.48
2018-12-02T08:02:19.923Z,1006.44
2018-12-02T08:03:20.229Z,1006.44
2018-12-02T08:04:19.970Z,1006.42
2018-12-02T08:05:19.960Z,1006.41
2018-12-02T08:06:19.889Z,1006.4
2018-12-02T08:07:19.726Z,1006.39
2018-12-02T08:08:19.808Z,1006.42
2018-12-02T08:09:19.860Z,1006.4
2018-12-02T08:10:20.017Z,1006.39
2018-12-02T08:11:19.683Z,1006.41
2018-12-02T08:12:19.882Z,1006.35
2018-12-02T08:13:19.917Z,1006.42
2018-12-02T08:14:19.950Z,1006.36
2018-12-02T08:15:19.898Z,1006.38
2018-12-02T08:16:20.041Z,1006.34
2018-12-02T08:17:19.942Z,1006.3
2018-12-02T08:18:20.093Z,1006.33
2018-12-02T08:19:20.012Z,1006.36
2018-12-02T08:20:19.658Z,1006.29
2018-12-02T08:21:19.889Z,1006.31
2018-12-02T08:22:19.654Z,1006.31
2018-12-02T08:23:19.646Z,1006.28
2018-12-02T08:24:19.744Z,1006.26
2018-12-02T08:25:19.916Z,1006.26
2018-12-02T08:26:19.698Z,1006.25
2018-12-02T08:27:19.690Z,1006.22
2018-12-02T08:28:19.993Z,1006.2
2018-12-02T08:29:20.158Z,1006.23
2018-12-02T08:30:19.874Z,1006.23
2018-12-02T08:31:19.756Z,1006.25
2018-12-02T08:32:19.617Z,1006.14
2018-12-02T08:33:19.634Z,1006.25
2018-12-02T08:34:19.990Z,1006.23
2018-12-02T08:35:19.899Z,1006.19
2018-12-02T08:36:19.914Z,1006.21
2018-12-02T08:37:19.649Z,1006.19
2018-12-02T08:38:19.637Z,1006.2
2018-12-02T08:39:19.888Z,1006.2
2018-12-02T08:40:20.727Z,1006.22
2018-12-02T08:41:19.727Z,1006.16
2018-12-02T08:42:19.810Z,1006.26
2018-12-02T08:43:19.819Z,1006.14
2018-12-02T08:44:19.628Z,1006.18
2018-12-02T08:45:19.665Z,1006.15
2018-12-02T08:46:19.790Z,1006.13
2018-12-02T08:47:19.925Z,1006.19
2018-12-02T08:48:19.624Z,1006.16
2018-12-02T08:49:19.776Z,1006.2
2018-12-02T08:50:19.818Z,1006.18
2018-12-02T08:51:19.635Z,1006.18
2018-12-02T08:52:19.695Z,1006.18
2018-12-02T08:53:19.912Z,1006.14
2018-12-02T08:54:19.648Z,1006.13
2018-12-02T08:55:19.701Z,1006.14
2018-12-02T08:56:19.780Z,1006.12
2018-12-02T08:57:19.660Z,1006.06
2018-12-02T08:58:19.649Z,1006.07
2018-12-02T08:59:19.796Z,1006.08
2018-12-02T09:00:19.765Z,1006.12
2018-12-02T09:01:19.772Z,1006.04
2018-12-02T09:02:19.785Z,1006.06
2018-12-02T09:03:19.720Z,1006.04
2018-12-02T09:04:19.650Z,1005.99
2018-12-02T09:05:19.752Z,1005.99
2018-12-02T09:06:19.721Z,1005.97
2018-12-02T09:07:19.656Z,1006.06
2018-12-02T09:08:19.816Z,1006.03
2018-12-02T09:09:19.812Z,1005.99
2018-12-02T09:10:19.670Z,1005.93
2018-12-02T09:11:19.684Z,1005.95
2018-12-02T09:12:19.769Z,1005.89
2018-12-02T09:13:19.582Z,1005.94
2018-12-02T09:14:19.709Z,1005.94
2018-12-02T09:15:19.963Z,1005.87
2018-12-02T09:16:19.942Z,1005.93
2018-12-02T09:17:19.668Z,1005.85
2018-12-02T09:18:19.580Z,1005.95
2018-12-02T09:19:19.709Z,1005.93
2018-12-02T09:20:19.630Z,1005.93
2018-12-02T09:21:19.604Z,1005.91
2018-12-02T09:22:19.632Z,1005.91
2018-12-02T09:23:19.616Z,1005.88
2018-12-02T09:24:19.577Z,1005.89
2018-12-02T09:25:19.588Z,1005.9
2018-12-02T09:26:19.623Z,1005.85
2018-12-02T09:27:19.630Z,1005.89
2018-12-02T09:28:19.848Z,1005.8
2018-12-02T09:29:19.611Z,1005.86
2018-12-02T09:30:19.636Z,1005.79
2018-12-02T09:31:19.699Z,1005.81
2018-12-02T09:32:19.646Z,1005.79
2018-12-02T09:33:19.581Z,1005.81
2018-12-02T09:34:19.612Z,1005.79
2018-12-02T09:35:19.626Z,1005.85
2018-12-02T09:36:20.133Z,1005.8
2018-12-02T09:37:20.798Z,1005.83
2018-12-02T09:38:19.547Z,1005.83
2018-12-02T09:39:19.731Z,1005.79
2018-12-02T09:40:19.637Z,1005.79
2018-12-02T09:41:19.766Z,1005.8
2018-12-02T09:42:19.683Z,1005.81
2018-12-02T09:43:20.095Z,1005.9
2018-12-02T09:44:19.615Z,1005.85
2018-12-02T09:45:19.614Z,1005.8
2018-12-02T09:46:19.579Z,1005.85
2018-12-02T09:47:19.698Z,1005.92
2018-12-02T09:48:19.692Z,1005.9
2018-12-02T09:49:19.754Z,1005.89
2018-12-02T09:50:20.697Z,1005.96
2018-12-02T09:51:19.798Z,1005.95
2018-12-02T09:52:19.927Z,1005.94
2018-12-02T09:53:19.784Z,1005.97
2018-12-02T09:54:23.481Z,1005.95
2018-12-02T09:55:19.598Z,1005.94
2018-12-02T09:56:19.570Z,1005.94
2018-12-02T09:57:19.682Z,1005.95
2018-12-02T09:58:19.976Z,1005.95
2018-12-02T09:59:19.562Z,1005.97
2018-12-02T10:00:19.554Z,1005.99
2018-12-02T10:01:19.680Z,1005.99
2018-12-02T10:02:19.685Z,1006
2018-12-02T10:03:19.782Z,1005.99
2018-12-02T10:04:19.795Z,1005.88
2018-12-02T10:05:19.589Z,1005.96
2018-12-02T10:06:19.674Z,1005.87
2018-12-02T10:07:19.751Z,1006.01
2018-12-02T10:08:19.763Z,1005.97
2018-12-02T10:09:22.156Z,1006.02
2018-12-02T10:10:23.075Z,1006
2018-12-02T10:11:19.769Z,1006.01
2018-12-02T10:12:19.712Z,1005.94
2018-12-02T10:13:19.748Z,1005.97
2018-12-02T10:14:19.691Z,1005.97
2018-12-02T10:15:19.785Z,1006.04
2018-12-02T10:16:19.684Z,1005.99
2018-12-02T10:17:19.683Z,1006.02
2018-12-02T10:18:19.614Z,1006.02
2018-12-02T10:19:19.827Z,1005.94
2018-12-02T10:20:20.797Z,1005.93
2018-12-02T10:21:19.619Z,1006.02
2018-12-02T10:22:19.525Z,1006.02
2018-12-02T10:23:19.629Z,1005.94
2018-12-02T10:24:19.598Z,1005.9
2018-12-02T10:25:19.598Z,1005.88
2018-12-02T10:26:19.627Z,1005.86
2018-12-02T10:27:19.608Z,1005.89
2018-12-02T10:28:19.523Z,1005.85
2018-12-02T10:29:19.628Z,1005.83
2018-12-02T10:30:19.699Z,1005.87
2018-12-02T10:31:19.747Z,1005.93
2018-12-02T10:32:19.627Z,1005.81
2018-12-02T10:33:19.552Z,1005.88
2018-12-02T10:34:19.564Z,1005.85
2018-12-02T10:35:19.593Z,1005.93
2018-12-02T10:36:19.655Z,1005.84
2018-12-02T10:37:19.785Z,1005.81
2018-12-02T10:38:19.656Z,1005.81
2018-12-02T10:39:19.556Z,1005.8
2018-12-02T10:40:19.540Z,1005.85
2018-12-02T10:41:19.588Z,1005.83
2018-12-02T10:42:19.918Z,1005.84
2018-12-02T10:43:19.897Z,1005.8
2018-12-02T10:44:19.548Z,1005.81
2018-12-02T10:45:19.475Z,1005.81
2018-12-02T10:46:19.682Z,1005.79
2018-12-02T10:47:19.588Z,1005.83
2018-12-02T10:48:19.633Z,1005.85
2018-12-02T10:49:19.629Z,1005.81
2018-12-02T10:50:19.507Z,1005.75
2018-12-02T10:51:19.692Z,1005.83
2018-12-02T10:52:19.652Z,1005.83
2018-12-02T10:53:19.705Z,1005.85
2018-12-02T10:54:19.521Z,1005.93
2018-12-02T10:55:19.570Z,1005.86
2018-12-02T10:56:19.464Z,1005.83
2018-12-02T10:57:19.472Z,1005.86
2018-12-02T10:58:19.523Z,1005.87
2018-12-02T10:59:19.544Z,1005.88
2018-12-02T11:00:19.515Z,1005.85
2018-12-02T11:01:22.712Z,1005.9
2018-12-02T11:02:25.008Z,1005.87
2018-12-02T11:03:21.622Z,1005.86
2018-12-02T11:04:22.091Z,1005.84
2018-12-02T11:05:24.749Z,1005.92
2018-12-02T11:06:23.875Z,1005.93
2018-12-02T11:07:20.793Z,1005.88
2018-12-02T11:08:22.101Z,1005.86
2018-12-02T11:09:25.136Z,1005.87
2018-12-02T11:10:22.866Z,1005.81
2018-12-02T11:11:23.837Z,1005.86
2018-12-02T11:12:34.147Z,1005.87
2018-12-02T11:13:23.541Z,1005.83
2018-12-02T11:14:26.540Z,1005.79
2018-12-02T11:15:44.450Z,1005.85
2018-12-02T11:16:22.195Z,1005.77
2018-12-02T11:17:20.907Z,1005.7
2018-12-02T11:18:21.720Z,1005.75
2018-12-02T11:19:21.359Z,1005.79
2018-12-02T11:20:30.829Z,1005.68
2018-12-02T11:21:30.558Z,1005.8
2018-12-02T11:22:23.343Z,1005.77
2018-12-02T11:23:22.864Z,1005.85
2018-12-02T11:24:25.810Z,1005.86
2018-12-02T11:25:21.898Z,1005.85
2018-12-02T11:26:22.700Z,1005.78
2018-12-02T11:27:24.689Z,1005.82
2018-12-02T11:28:19.330Z,1005.85
2018-12-02T11:29:19.644Z,1005.83
2018-12-02T11:30:19.419Z,1005.82
2018-12-02T11:31:19.653Z,1005.83
2018-12-02T11:32:19.425Z,1005.85
2018-12-02T11:33:19.593Z,1005.78
2018-12-02T11:34:19.474Z,1005.75
2018-12-02T11:35:19.467Z,1005.76
2018-12-02T11:36:19.509Z,1005.72
2018-12-02T11:37:19.552Z,1005.79
2018-12-02T11:38:19.811Z,1005.68
2018-12-02T11:39:19.489Z,1005.71
2018-12-02T11:40:19.610Z,1005.64
2018-12-02T11:41:19.480Z,1005.69
2018-12-02T11:42:19.668Z,1005.78
2018-12-02T11:43:19.572Z,1005.64
2018-12-02T11:44:19.604Z,1005.69
2018-12-02T11:45:19.508Z,1005.72
2018-12-02T11:46:19.422Z,1005.74
2018-12-02T11:47:19.782Z,1005.68
2018-12-02T11:48:19.978Z,1005.69
2018-12-02T11:49:19.608Z,1005.69
2018-12-02T11:50:23.641Z,1005.68
2018-12-02T11:51:21.814Z,1005.6
2018-12-02T11:52:19.459Z,1005.61
2018-12-02T11:53:19.600Z,1005.65
2018-12-02T11:54:19.418Z,1005.62
2018-12-02T11:55:19.615Z,1005.7
2018-12-02T11:56:19.510Z,1005.65
2018-12-02T11:57:19.524Z,1005.69
2018-12-02T11:58:19.479Z,1005.7
2018-12-02T11:59:19.383Z,1005.64
2018-12-02T12:00:19.521Z,1005.79
2018-12-02T12:01:19.588Z,1005.73
2018-12-02T12:02:19.508Z,1005.7
2018-12-02T12:03:19.469Z,1005.74
2018-12-02T12:04:19.446Z,1005.71
2018-12-02T12:05:19.557Z,1005.71
2018-12-02T12:06:19.647Z,1005.64
2018-12-02T12:07:19.521Z,1005.68
2018-12-02T12:08:19.428Z,1005.62